Bookmark and Share
Track history (hours):
 

United Tenorio

Last reported at 2014-Apr-03 10:19 UTC. Time now 2014-Apr-23 15:18 UTC.
Position N 31°05' E 122°27'.
Warning: this ship's position is 20 days out of date.

Length 174 m; draft 10.5 m.

Type: Cargo ship. MMSI: 636091880.

NotesDate/timePositionNaut miles runAvg speedWind from/ knotsBaromVisibWave heightAir tempDewpointWater temp
2014-Apr-03 10:19N 31°05' E 122°27'1512.6
2014-Apr-03 09:07N 31°11' E 122°11'2312.9
2014-Apr-03 07:18N 31°18' E 121°45'710.0
2014-Apr-03 06:34N 31°22' E 121°37'8 8.1
2014-Apr-03 05:34N 31°26' E 121°29'1010.0
2014-Apr-03 04:32N 31°33' E 121°20'2412.0
2014-Apr-03 02:33N 31°46' E 120°57'0 0.2
2014-Apr-02 23:33N 31°46' E 120°57'0 0.0
2014-Apr-02 22:18N 31°46' E 120°57'0 0.0
2014-Apr-02 21:21N 31°46' E 120°57'0 0.0
2014-Apr-02 20:27N 31°46' E 120°57'0 0.0
2014-Apr-02 19:09N 31°46' E 120°57'0 0.0
2014-Apr-02 18:33N 31°46' E 120°57'0 0.0
2014-Apr-02 17:33N 31°46' E 120°57'0 0.0
2014-Apr-02 16:33N 31°46' E 120°57'0 0.0
2014-Apr-02 15:09N 31°46' E 120°57'0 0.0
2014-Apr-02 14:30N 31°46' E 120°57'0 0.0
2014-Apr-02 13:03N 31°46' E 120°57'0 0.0
2014-Apr-02 12:15N 31°46' E 120°57'0 0.0
2014-Apr-02 11:21N 31°46' E 120°57'0 0.0
2014-Apr-02 10:33N 31°46' E 120°57'0 0.0
2014-Apr-02 09:12N 31°46' E 120°57'0 0.0
2014-Apr-02 08:27N 31°46' E 120°57'0 0.0
2014-Apr-02 07:33N 31°46' E 120°57'0 0.0
2014-Apr-02 06:24N 31°46' E 120°57'0 0.0
2014-Apr-02 05:09N 31°46' E 120°57'0 0.0
2014-Apr-02 04:24N 31°46' E 120°57'0 0.0
2014-Apr-02 03:27N 31°46' E 120°57'0 0.0
2014-Apr-02 02:27N 31°46' E 120°57'0 0.0
2014-Apr-02 01:21N 31°46' E 120°57'0 0.0
2014-Apr-02 00:03N 31°46' E 120°57'0 0.0
2014-Apr-01 23:30N 31°46' E 120°57'0 0.0
2014-Apr-01 22:33N 31°46' E 120°57'0 0.0
2014-Apr-01 20:27N 31°46' E 120°57'0 0.0
2014-Apr-01 18:27N 31°46' E 120°57'0 0.0
2014-Apr-01 17:09N 31°46' E 120°57'0 0.1
2014-Apr-01 16:33N 31°46' E 120°57'0 0.0
2014-Apr-01 15:33N 31°46' E 120°57'0 0.0
2014-Apr-01 14:27N 31°46' E 120°57'0 0.0
2014-Apr-01 13:30N 31°46' E 120°57'0 0.0
2014-Apr-01 12:24N 31°46' E 120°57'0 0.0
2014-Apr-01 11:30N 31°46' E 120°57'0 0.0
2014-Apr-01 10:33N 31°46' E 120°57'0 0.0
2014-Apr-01 07:21N 31°46' E 120°57'0 0.0
2014-Apr-01 06:15N 31°46' E 120°57'0 0.0
2014-Apr-01 05:15N 31°46' E 120°57'0 0.1
2014-Apr-01 04:33N 31°46' E 120°57'0 0.0
2014-Apr-01 03:15N 31°46' E 120°57'0 0.0
2014-Apr-01 02:27N 31°46' E 120°57'0 0.0
2014-Apr-01 01:33N 31°46' E 120°57'0 0.0
2014-Apr-01 00:24N 31°46' E 120°57'0 0.0
2014-Mar-31 22:24N 31°46' E 120°57'0 0.0
2014-Mar-31 21:21N 31°46' E 120°57'0 0.0
2014-Mar-31 20:21N 31°46' E 120°57'0 0.0
2014-Mar-31 19:33N 31°46' E 120°57'0 0.0
2014-Mar-31 18:33N 31°46' E 120°57'0 0.0
2014-Mar-31 16:33N 31°46' E 120°57'0 0.0
2014-Mar-31 15:09N 31°46' E 120°57'0 0.0
2014-Mar-31 14:15N 31°46' E 120°57'0 0.0
2014-Mar-31 13:21N 31°46' E 120°57'2 2.9
2014-Mar-31 12:31N 31°47' E 120°60'8 8.5
2014-Mar-31 11:33N 31°42' E 121°08'9 9.4
2014-Mar-31 10:33N 31°37' E 121°17'1010.2
2014-Mar-31 09:33N 31°30' E 121°26'8 8.1
2014-Mar-31 08:33N 31°24' E 121°33'10 9.7
2014-Mar-31 07:33N 31°20' E 121°42'  

Dump ship's entire track history

sailing weather and tide predictions

United Tenorio — A8UB9 — position and weather